Time;durP1;ratioP1;P1;durP2;ratioP2;P2;SDS_P1;SDS_P2;PMS_P1;PMS_P2;Temp;Humidity;BMP_temperature;BMP_pressure;BME280_temperature;BME280_humidity;BME280_pressure;Samples;Min_cycle;Max_cycle;Signal;HPM_P1;HPM_P2
2022/04/17 12:34:34;;;;;;;781.06;717.57;;;;;;;17.74;44.61;101273.06;;;;-55
2022/04/17 12:37:35;;;;;;;654.16;599.33;;;;;;;17.72;44.69;101268.64;;;;-56
2022/04/17 12:40:36;;;;;;;491.57;451.53;;;;;;;17.73;44.74;101262.52;;;;-49
2022/04/17 12:44:04;;;;;;;517.85;473.22;;;;;;;17.75;45.06;101256.90;;;;-50
2022/04/17 12:46:35;;;;;;;439.49;401.78;;;;;;;17.77;45.01;101256.30;;;;-45
2022/04/17 12:49:35;;;;;;;394.64;361.23;;;;;;;17.77;45.11;101258.49;;;;-54
2022/04/17 12:52:34;;;;;;;318.43;291.86;;;;;;;17.78;45.17;101250.43;;;;-52
2022/04/17 12:55:35;;;;;;;363.15;332.66;;;;;;;17.79;45.30;101235.28;;;;-59
2022/04/17 12:58:35;;;;;;;374.03;342.55;;;;;;;17.81;45.22;101233.38;;;;-51
2022/04/17 13:01:37;;;;;;;462.33;422.81;;;;;;;17.81;45.30;101229.56;;;;-57
2022/04/17 13:04:34;;;;;;;477.93;437.04;;;;;;;17.82;45.44;101229.02;;;;-58
2022/04/17 13:07:49;;;;;;;93.63;86.59;;;;;;;17.84;45.29;101227.15;;;;-52
2022/04/17 13:10:35;;;;;;;182.24;167.37;;;;;;;17.86;45.55;101219.01;;;;-49
2022/04/17 13:13:34;;;;;;;66.03;61.07;;;;;;;17.88;45.69;101219.06;;;;-52
2022/04/17 13:16:35;;;;;;;61.00;56.50;;;;;;;17.91;45.58;101212.02;;;;-50
2022/04/17 13:20:05;;;;;;;51.52;47.41;;;;;;;17.94;45.91;101206.41;;;;-57
2022/04/17 13:23:05;;;;;;;116.51;107.70;;;;;;;17.94;45.79;101205.67;;;;-52
2022/04/17 13:26:04;;;;;;;572.66;523.36;;;;;;;17.92;45.63;101197.19;;;;-58
2022/04/17 13:31:35;;;;;;;601.11;549.06;;;;;;;17.88;45.51;101186.63;;;;-46
2022/04/17 13:34:36;;;;;;;426.36;388.85;;;;;;;17.86;45.45;101179.20;;;;-47
2022/04/17 13:38:19;;;;;;;312.00;286.01;;;;;;;17.85;45.35;101173.11;;;;-47
2022/04/17 13:40:36;;;;;;;226.15;207.66;;;;;;;17.83;45.37;101171.44;;;;-48
2022/04/17 13:43:34;;;;;;;194.45;178.77;;;;;;;17.82;45.30;101165.86;;;;-47
2022/04/17 13:46:34;;;;;;;275.97;253.25;;;;;;;17.81;45.31;101164.30;;;;-47
2022/04/17 13:50:04;;;;;;;236.49;217.01;;;;;;;17.80;45.18;101161.02;;;;-47
2022/04/17 13:53:05;;;;;;;38.38;35.53;;;;;;;17.79;45.18;101146.91;;;;-47
2022/04/17 13:56:04;;;;;;;247.37;226.35;;;;;;;17.79;45.19;101136.36;;;;-47
2022/04/17 13:59:06;;;;;;;114.39;105.49;;;;;;;17.77;45.14;101139.32;;;;-47
2022/04/17 14:02:05;;;;;;;211.39;194.67;;;;;;;17.77;45.11;101130.07;;;;-46
2022/04/17 14:05:06;;;;;;;206.80;190.36;;;;;;;17.76;45.14;101128.77;;;;-47
2022/04/17 14:08:04;;;;;;;267.87;246.09;;;;;;;17.77;44.98;101122.20;;;;-47
2022/04/17 14:11:05;;;;;;;235.75;216.51;;;;;;;17.75;45.08;101114.95;;;;-49
2022/04/17 14:14:05;;;;;;;221.55;203.59;;;;;;;17.75;45.03;101108.47;;;;-49
2022/04/17 14:17:05;;;;;;;139.64;128.75;;;;;;;17.74;45.01;101102.62;;;;-53
2022/04/17 14:20:05;;;;;;;147.96;136.23;;;;;;;17.74;45.03;101100.31;;;;-53
2022/04/17 14:23:05;;;;;;;119.25;110.29;;;;;;;17.74;45.03;101105.75;;;;-53
2022/04/17 14:26:05;;;;;;;116.83;108.07;;;;;;;17.73;44.98;101101.20;;;;-53
2022/04/17 14:29:05;;;;;;;94.43;87.62;;;;;;;17.72;44.99;101091.43;;;;-53
2022/04/17 14:32:05;;;;;;;80.67;74.78;;;;;;;17.73;45.04;101089.84;;;;-53
2022/04/17 14:35:05;;;;;;;100.71;93.35;;;;;;;17.72;45.00;101085.51;;;;-52
2022/04/17 14:37:35;;;;;;;56.16;52.16;;;;;;;17.71;44.92;101081.13;;;;-53
2022/04/17 14:40:35;;;;;;;68.40;63.48;;;;;;;17.71;44.90;101084.13;;;;-53
2022/04/17 14:44:05;;;;;;;90.79;84.23;;;;;;;17.70;44.88;101079.62;;;;-52
2022/04/17 14:47:05;;;;;;;47.69;44.43;;;;;;;17.70;44.93;101075.00;;;;-52
2022/04/17 15:07:39;;;;;;;51.66;48.13;;;;;;;17.68;44.89;101052.54;;;;-57
2022/04/17 15:13:40;;;;;;;91.00;84.41;;;;;;;17.69;44.80;101044.44;;;;-57
2022/04/17 15:16:39;;;;;;;222.38;204.31;;;;;;;17.68;44.78;101032.67;;;;-47
2022/04/17 15:19:39;;;;;;;218.73;200.55;;;;;;;17.68;44.93;101026.24;;;;-51
2022/04/17 15:22:39;;;;;;;120.65;111.48;;;;;;;17.69;45.14;101023.77;;;;-53
2022/04/17 15:25:39;;;;;;;262.37;240.29;;;;;;;17.70;45.09;101016.23;;;;-53
2022/04/17 15:28:39;;;;;;;135.08;124.66;;;;;;;17.71;45.18;101012.55;;;;-56
2022/04/17 15:31:39;;;;;;;85.30;79.10;;;;;;;17.73;45.22;101009.59;;;;-51
2022/04/17 15:34:10;;;;;;;76.96;71.45;;;;;;;17.73;45.31;100999.95;;;;-63
2022/04/17 15:37:09;;;;;;;96.82;89.53;;;;;;;17.75;45.43;101000.40;;;;-51
2022/04/17 15:40:39;;;;;;;68.98;63.87;;;;;;;17.75;45.32;100996.83;;;;-64
2022/04/17 15:49:09;;;;;;;34.47;32.23;;;;;;;17.79;45.46;100986.22;;;;-53
2022/04/17 15:52:16;;;;;;;133.36;122.37;;;;;;;17.79;45.49;100995.47;;;;-50
2022/04/17 15:55:39;;;;;;;27.03;25.28;;;;;;;17.81;45.53;100992.18;;;;-46
2022/04/17 15:58:43;;;;;;;96.13;88.79;;;;;;;17.83;45.52;100988.77;;;;-52
2022/04/17 16:01:39;;;;;;;83.65;77.61;;;;;;;17.84;45.47;100984.56;;;;-57
2022/04/17 16:04:39;;;;;;;147.97;136.44;;;;;;;17.87;45.56;100990.40;;;;-54
2022/04/17 16:07:39;;;;;;;141.19;130.23;;;;;;;17.89;45.41;100992.31;;;;-54
2022/04/17 16:10:39;;;;;;;85.79;79.26;;;;;;;17.87;45.36;100985.53;;;;-60
2022/04/17 16:13:39;;;;;;;141.11;129.94;;;;;;;17.86;45.26;100983.71;;;;-54
2022/04/17 16:16:39;;;;;;;63.27;58.78;;;;;;;17.84;45.28;100979.53;;;;-54
2022/04/17 16:19:39;;;;;;;119.46;109.97;;;;;;;17.83;45.23;100980.66;;;;-51
2022/04/17 16:22:39;;;;;;;185.07;170.06;;;;;;;17.85;45.29;100979.98;;;;-51
2022/04/17 16:25:10;;;;;;;6.48;4.69;;;;;;;17.84;45.23;100977.67;;;;-52
2022/04/17 16:28:39;;;;;;;3.72;3.40;;;;;;;17.85;45.26;100980.71;;;;-50
2022/04/17 17:10:13;;;;;;;1.89;1.40;;;;;;;18.03;45.39;100948.87;;;;-51
2022/04/17 17:13:13;;;;;;;6.46;1.53;;;;;;;18.03;45.39;100944.57;;;;-53
2022/04/17 17:16:13;;;;;;;3.43;1.71;;;;;;;18.04;45.34;100944.44;;;;-51
2022/04/17 17:19:14;;;;;;;2.25;1.35;;;;;;;18.03;45.37;100947.41;;;;-49
2022/04/17 17:22:14;;;;;;;7.80;1.69;;;;;;;18.05;45.38;100946.80;;;;-48
2022/04/17 17:25:13;;;;;;;4.21;1.81;;;;;;;18.05;45.32;100947.37;;;;-59
2022/04/17 17:28:13;;;;;;;2.03;1.51;;;;;;;18.02;45.31;100947.81;;;;-59
2022/04/17 17:31:13;;;;;;;2.78;1.61;;;;;;;18.00;45.25;100946.39;;;;-59
2022/04/17 17:34:14;;;;;;;3.67;2.01;;;;;;;17.97;45.17;100943.18;;;;-59
2022/04/17 17:37:13;;;;;;;4.80;1.60;;;;;;;17.98;45.34;100942.78;;;;-56
2022/04/17 17:40:13;;;;;;;1.71;1.30;;;;;;;17.98;45.56;100942.95;;;;-51
2022/04/17 17:43:13;;;;;;;2.29;1.43;;;;;;;17.98;45.49;100946.19;;;;-50
2022/04/17 17:46:15;;;;;;;2.87;1.49;;;;;;;17.99;45.60;100942.37;;;;-52
2022/04/17 17:48:43;;;;;;;2.35;1.51;;;;;;;18.00;45.49;100942.98;;;;-51
2022/04/17 17:51:43;;;;;;;2.42;1.43;;;;;;;17.98;45.38;100946.11;;;;-51
2022/04/17 17:55:15;;;;;;;2.59;1.41;;;;;;;17.97;45.35;100947.04;;;;-52
2022/04/17 17:57:45;;;;;;;3.44;1.49;;;;;;;17.95;45.30;100950.52;;;;-53
2022/04/17 18:00:43;;;;;;;2.24;1.41;;;;;;;17.94;45.34;100949.42;;;;-52
2022/04/17 18:03:44;;;;;;;3.14;1.43;;;;;;;17.94;45.29;100947.56;;;;-52
2022/04/17 18:06:44;;;;;;;2.20;1.87;;;;;;;17.94;45.25;100942.86;;;;-52
2022/04/17 18:15:45;;;;;;;1.84;1.32;;;;;;;17.91;45.21;100944.67;;;;-51
2022/04/17 18:18:43;;;;;;;4.26;1.43;;;;;;;17.89;45.18;100947.31;;;;-51
2022/04/17 18:21:43;;;;;;;3.28;1.33;;;;;;;17.90;45.23;100955.50;;;;-51
2022/04/17 18:24:44;;;;;;;2.69;1.34;;;;;;;17.89;45.19;100954.69;;;;-51
2022/04/17 18:27:46;;;;;;;1.74;1.43;;;;;;;17.88;45.18;100954.25;;;;-51
2022/04/17 18:31:14;;;;;;;1.83;1.40;;;;;;;17.87;45.21;100957.24;;;;-51
2022/04/17 18:34:14;;;;;;;2.06;1.37;;;;;;;17.85;45.17;100956.39;;;;-51
2022/04/17 18:37:14;;;;;;;1.65;1.27;;;;;;;17.86;45.19;100956.15;;;;-51
2022/04/17 18:40:14;;;;;;;3.15;2.91;;;;;;;17.85;45.15;100954.84;;;;-51
2022/04/17 18:43:14;;;;;;;2.65;1.31;;;;;;;17.83;45.17;100960.07;;;;-50
2022/04/17 18:46:14;;;;;;;2.73;1.41;;;;;;;17.86;45.23;100960.53;;;;-49
2022/04/17 19:15:18;;;;;;;1.41;1.31;;;;;;;17.97;45.45;100962.61;;;;-57
2022/04/17 19:18:19;;;;;;;1.53;1.30;;;;;;;17.96;45.48;100964.31;;;;-53
2022/04/17 19:21:48;;;;;;;2.55;1.51;;;;;;;17.96;45.48;100964.31;;;;-58
2022/04/17 19:24:48;;;;;;;3.02;1.31;;;;;;;17.96;45.55;100967.39;;;;-54
2022/04/17 19:27:48;;;;;;;4.82;4.21;;;;;;;17.96;45.44;100960.58;;;;-55
2022/04/17 19:36:18;;;;;;;3.20;1.40;;;;;;;17.95;45.37;100967.62;;;;-63
2022/04/17 19:39:18;;;;;;;1.43;1.30;;;;;;;17.94;45.45;100963.53;;;;-63
2022/04/17 19:42:48;;;;;;;1.85;1.33;;;;;;;17.93;45.39;100959.88;;;;-63
2022/04/17 19:45:48;;;;;;;1.57;1.31;;;;;;;17.92;45.39;100965.28;;;;-62
2022/04/17 19:48:48;;;;;;;2.08;1.31;;;;;;;17.91;45.33;100960.38;;;;-63
2022/04/17 19:51:49;;;;;;;2.19;1.41;;;;;;;17.92;45.54;100960.66;;;;-54
2022/04/17 19:54:48;;;;;;;1.49;1.30;;;;;;;17.93;45.54;100960.53;;;;-57
2022/04/17 19:57:50;;;;;;;2.11;1.30;;;;;;;17.95;45.60;100958.35;;;;-56
2022/04/17 20:00:19;;;;;;;5.03;1.29;;;;;;;17.96;45.51;100953.12;;;;-55
2022/04/17 20:03:48;;;;;;;1.49;1.30;;;;;;;17.96;45.55;100955.63;;;;-51
2022/04/17 20:06:48;;;;;;;1.75;1.20;;;;;;;17.95;45.47;100953.68;;;;-51
2022/04/17 20:09:18;;;;;;;2.89;1.40;;;;;;;17.96;45.46;100951.98;;;;-51
2022/04/17 20:12:18;;;;;;;1.71;1.30;;;;;;;17.95;45.55;100949.30;;;;-52
2022/04/17 20:18:18;;;;;;;2.53;1.45;;;;;;;17.96;45.60;100944.04;;;;-52
2022/04/17 20:21:48;;;;;;;1.42;1.30;;;;;;;17.96;45.56;100945.66;;;;-52
2022/04/17 20:24:18;;;;;;;1.45;1.31;;;;;;;17.95;45.61;100935.11;;;;-52
2022/04/17 20:27:48;;;;;;;2.23;1.20;;;;;;;17.96;45.61;100933.09;;;;-55
2022/04/17 20:30:48;;;;;;;1.69;1.39;;;;;;;17.97;45.62;100933.20;;;;-54
2022/04/17 20:33:48;;;;;;;1.58;1.36;;;;;;;17.97;45.69;100930.20;;;;-53
2022/04/17 20:36:48;;;;;;;2.77;1.39;;;;;;;17.97;45.72;100925.75;;;;-58
2022/04/17 20:39:48;;;;;;;1.95;1.41;;;;;;;17.97;45.65;100924.13;;;;-51
2022/04/17 20:42:48;;;;;;;2.41;1.37;;;;;;;17.97;45.69;100924.29;;;;-57
2022/04/17 20:51:18;;;;;;;2.57;1.37;;;;;;;17.97;45.82;100916.59;;;;-58
2022/04/17 20:54:20;;;;;;;3.56;1.40;;;;;;;17.98;45.77;100913.27;;;;-53
2022/04/17 21:00:18;;;;;;;1.50;1.40;;;;;;;17.98;45.81;100909.37;;;;-58
2022/04/17 21:12:18;;;;;;;2.63;1.30;;;;;;;17.97;45.53;100910.02;;;;-58
2022/04/17 21:15:48;;;;;;;1.42;1.24;;;;;;;17.97;45.52;100907.30;;;;-58
2022/04/17 21:18:48;;;;;;;1.87;1.39;;;;;;;17.95;45.56;100903.86;;;;-59
2022/04/17 21:21:18;;;;;;;1.57;1.40;;;;;;;17.94;45.47;100902.80;;;;-58
2022/04/17 21:24:48;;;;;;;1.83;1.50;;;;;;;17.94;45.43;100896.72;;;;-58
2022/04/17 21:30:18;;;;;;;1.43;1.31;;;;;;;17.92;45.35;100899.92;;;;-52
2022/04/17 21:33:48;;;;;;;2.45;1.41;;;;;;;17.91;45.35;100899.19;;;;-59
2022/04/17 21:37:45;;;;;;;1.78;1.52;;;;;;;17.90;45.34;100899.72;;;;-60
2022/04/17 21:41:20;;;;;;;1.50;1.40;;;;;;;17.88;45.34;100895.55;;;;-58
2022/04/17 21:44:19;;;;;;;1.74;1.61;;;;;;;17.86;45.38;100892.83;;;;-55
2022/04/17 21:47:48;;;;;;;2.37;2.11;;;;;;;17.86;45.35;100894.05;;;;-54
2022/04/17 21:50:18;;;;;;;2.27;2.07;;;;;;;17.85;45.27;100891.69;;;;-54
2022/04/17 21:53:48;;;;;;;23.57;21.99;;;;;;;17.83;45.33;100890.35;;;;-55
2022/04/17 21:56:48;;;;;;;2.27;1.67;;;;;;;17.82;45.35;100888.34;;;;-54
2022/04/17 22:04:33;;;;;;;17.20;16.14;;;;;;;17.80;45.31;100882.13;;;;-57
2022/04/17 22:07:18;;;;;;;143.75;132.37;;;;;;;17.79;45.28;100883.19;;;;-54
2022/04/17 22:10:18;;;;;;;29.81;27.86;;;;;;;17.78;45.26;100882.98;;;;-55
2022/04/17 22:13:48;;;;;;;105.87;97.84;;;;;;;17.78;45.27;100882.82;;;;-54
2022/04/17 22:16:18;;;;;;;68.49;63.83;;;;;;;17.77;45.25;100880.63;;;;-55
2022/04/17 22:19:48;;;;;;;64.08;59.20;;;;;;;17.76;45.29;100881.89;;;;-54
2022/04/17 22:22:18;;;;;;;1.48;1.34;;;;;;;17.76;45.29;100884.32;;;;-54
2022/04/17 22:25:48;;;;;;;3.48;3.19;;;;;;;17.75;45.27;100884.16;;;;-58
2022/04/17 22:28:18;;;;;;;22.93;21.31;;;;;;;17.74;45.22;100883.63;;;;-60
2022/04/17 22:45:22;;;;;;;19.29;18.13;;;;;;;17.71;45.15;100881.64;;;;-52
2022/04/17 22:48:22;;;;;;;73.19;67.89;;;;;;;17.70;45.23;100880.66;;;;-52
2022/04/17 22:51:22;;;;;;;99.68;92.01;;;;;;;17.70;45.21;100879.28;;;;-53
2022/04/17 22:53:52;;;;;;;103.65;95.98;;;;;;;17.69;45.16;100879.09;;;;-58
2022/04/17 22:56:52;;;;;;;100.00;92.41;;;;;;;17.68;45.22;100881.52;;;;-58
2022/04/17 22:59:54;;;;;;;59.85;55.65;;;;;;;17.67;45.24;100879.61;;;;-59
2022/04/17 23:02:52;;;;;;;70.25;65.23;;;;;;;17.67;45.24;100879.45;;;;-58
2022/04/17 23:06:22;;;;;;;71.52;66.37;;;;;;;17.65;45.25;100880.13;;;;-58
2022/04/17 23:08:52;;;;;;;29.02;27.07;;;;;;;17.64;45.27;100878.19;;;;-60
2022/04/17 23:11:52;;;;;;;2.22;2.07;;;;;;;17.65;45.28;100882.65;;;;-60
2022/04/17 23:14:52;;;;;;;2.10;1.94;;;;;;;17.62;45.30;100880.82;;;;-60
2022/04/17 23:17:52;;;;;;;8.78;8.25;;;;;;;17.62;45.25;100879.84;;;;-59
2022/04/17 23:20:52;;;;;;;17.21;16.12;;;;;;;17.62;45.24;100873.73;;;;-60
2022/04/17 23:23:52;;;;;;;30.27;28.25;;;;;;;17.61;45.23;100873.08;;;;-59
2022/04/17 23:26:52;;;;;;;22.91;21.43;;;;;;;17.60;45.22;100871.13;;;;-60
2022/04/17 23:29:55;;;;;;;9.88;9.27;;;;;;;17.60;45.24;100873.16;;;;-60
2022/04/17 23:32:54;;;;;;;29.03;27.15;;;;;;;17.58;45.18;100870.12;;;;-60
2022/04/17 23:35:53;;;;;;;2.23;2.03;;;;;;;17.58;45.28;100866.47;;;;-53
2022/04/17 23:38:52;;;;;;;3.45;3.25;;;;;;;17.57;45.21;100862.62;;;;-52
2022/04/17 23:41:52;;;;;;;62.91;58.47;;;;;;;17.56;45.26;100862.54;;;;-59
2022/04/17 23:44:52;;;;;;;36.25;33.86;;;;;;;17.56;45.27;100862.86;;;;-60
2022/04/17 23:47:52;;;;;;;13.66;12.83;;;;;;;17.55;45.27;100861.28;;;;-59
2022/04/17 23:50:52;;;;;;;19.25;18.01;;;;;;;17.54;45.29;100855.20;;;;-54
2022/04/17 23:54:22;;;;;;;44.59;41.59;;;;;;;17.54;45.26;100855.36;;;;-54
2022/04/17 23:57:22;;;;;;;48.23;44.97;;;;;;;17.53;45.25;100849.09;;;;-53
